Al Hamla — V7MX9 — position and weather

sailwx.info

Track history (hours):
 
Tides and Currents Weather Stations Pressure Air Temp Water Temp Dewpoint Dewpoint Depression Visibility Wind Speed Wind Dir Waves Ship Positions

Al Hamla

Last reported at 2016-May-05 15:25 UTC. Time now 2016-May-05 20:03 UTC.
Position N 47°44' W 005°51'.

Length 333 m; draft 12.1 m.

Type: Tanker. MMSI: 538002922.

Date/timePositionNaut miles runAvg speedWind from/ knotsBaromVisibWave heightAir tempDewpointWater temp
2016-May-05 15:25N 47°44' W 005°51'1 1.2
2016-May-05 14:33N 47°45' W 005°52'2 1.3
2016-May-05 13:20N 47°44' W 005°55'1 0.2
2016-May-05 08:12N 47°43' W 005°55'1 1.5
2016-May-05 07:28N 47°44' W 005°54'2 1.8
2016-May-05 06:33N 47°46' W 005°53'2 2.0
2016-May-05 05:31N 47°48' W 005°52'5 1.2
2016-May-05 01:29N 47°52' W 005°55'1 0.8
2016-May-05 00:33N 47°52' W 005°56'1 0.6
2016-May-04 23:33N 47°52' W 005°57'5 0.5
2016-May-04 13:30N 47°52' W 006°04'53813.8
2016-May-02 22:33N 39°21' W 009°56'1915.1
2016-May-02 21:18N 39°02' W 009°57'1115.1
2016-May-02 20:33N 38°51' W 009°57'1514.8
2016-May-02 19:33N 38°37' W 009°54'1514.7
2016-May-02 18:33N 38°22' W 009°50'1514.8
2016-May-02 17:33N 38°08' W 009°44'1514.9
2016-May-02 16:33N 37°53' W 009°41'1514.8
2016-May-02 15:33N 37°39' W 009°38'1515.1
2016-May-02 14:33N 37°24' W 009°33'1615.0
2016-May-02 13:29N 37°08' W 009°29'20114.4
2016-May-01 23:32N 35°59' W 005°34'1110.9
2016-May-01 22:33N 36°04' W 005°22'4 1.9
2016-May-01 20:33N 36°08' W 005°23'0 0.0
2016-May-01 19:16N 36°08' W 005°23'0 0.0
2016-May-01 14:31N 36°08' W 005°23'0 0.0
2016-May-01 13:32N 36°08' W 005°23'0 0.0
2016-May-01 11:33N 36°08' W 005°23'0 0.3
2016-May-01 10:31N 36°08' W 005°23'4 3.7
2016-May-01 09:33N 36°05' W 005°20'86316.9
2016-Apr-29 06:26N 36°60' E 012°33'1517.3
2016-Apr-29 05:33N 36°53' E 012°50'1717.2
2016-Apr-29 04:33N 36°48' E 013°10'1717.4
2016-Apr-29 03:33N 36°42' E 013°31'1817.9
2016-Apr-29 02:33N 36°37' E 013°52'1817.6
2016-Apr-29 01:33N 36°30' E 014°12'1817.7
2016-Apr-29 00:33N 36°26' E 014°34'1817.8
2016-Apr-28 23:33N 36°21' E 014°55'16017.6
2016-Apr-28 14:29N 35°32' E 018°03'4217.8
2016-Apr-28 12:07N 35°19' E 018°52'  
Track history (hours):
 
Tides and Currents Weather Stations Pressure Air Temp Water Temp Dewpoint Dewpoint Depression Visibility Wind Speed Wind Dir Waves Ship Positions

Al Hamla

Last reported at 2016-May-05 15:25 UTC. Time now 2016-May-05 20:03 UTC.
Position N 47°44' W 005°51'.

Length 333 m; draft 12.1 m.

Type: Tanker. MMSI: 538002922.

Date/timePositionNaut miles runAvg speedWind from/ knotsBaromVisibWave heightAir tempDewpointWater temp
2016-May-05 15:25N 47°44' W 005°51'1 1.2
2016-May-05 14:33N 47°45' W 005°52'2 1.3
2016-May-05 13:20N 47°44' W 005°55'1 0.2
2016-May-05 08:12N 47°43' W 005°55'1 1.5
2016-May-05 07:28N 47°44' W 005°54'2 1.8
2016-May-05 06:33N 47°46' W 005°53'2 2.0
2016-May-05 05:31N 47°48' W 005°52'5 1.2
2016-May-05 01:29N 47°52' W 005°55'1 0.8
2016-May-05 00:33N 47°52' W 005°56'1 0.6
2016-May-04 23:33N 47°52' W 005°57'5 0.5
2016-May-04 13:30N 47°52' W 006°04'53813.8
2016-May-02 22:33N 39°21' W 009°56'1915.1
2016-May-02 21:18N 39°02' W 009°57'1115.1
2016-May-02 20:33N 38°51' W 009°57'1514.8
2016-May-02 19:33N 38°37' W 009°54'1514.7
2016-May-02 18:33N 38°22' W 009°50'1514.8
2016-May-02 17:33N 38°08' W 009°44'1514.9
2016-May-02 16:33N 37°53' W 009°41'1514.8
2016-May-02 15:33N 37°39' W 009°38'1515.1
2016-May-02 14:33N 37°24' W 009°33'1615.0
2016-May-02 13:29N 37°08' W 009°29'20114.4
2016-May-01 23:32N 35°59' W 005°34'1110.9
2016-May-01 22:33N 36°04' W 005°22'4 1.9
2016-May-01 20:33N 36°08' W 005°23'0 0.0
2016-May-01 19:16N 36°08' W 005°23'0 0.0
2016-May-01 14:31N 36°08' W 005°23'0 0.0
2016-May-01 13:32N 36°08' W 005°23'0 0.0
2016-May-01 11:33N 36°08' W 005°23'0 0.3
2016-May-01 10:31N 36°08' W 005°23'4 3.7
2016-May-01 09:33N 36°05' W 005°20'86316.9
2016-Apr-29 06:26N 36°60' E 012°33'1517.3
2016-Apr-29 05:33N 36°53' E 012°50'1717.2
2016-Apr-29 04:33N 36°48' E 013°10'1717.4
2016-Apr-29 03:33N 36°42' E 013°31'1817.9
2016-Apr-29 02:33N 36°37' E 013°52'1817.6
2016-Apr-29 01:33N 36°30' E 014°12'1817.7
2016-Apr-29 00:33N 36°26' E 014°34'1817.8
2016-Apr-28 23:33N 36°21' E 014°55'16017.6
2016-Apr-28 14:29N 35°32' E 018°03'4217.8
2016-Apr-28 12:07N 35°19' E 018°52'  

Dump ship's entire track history